KMCF/MCF METAR and TAF weather

Enter ICAO airport designator
Station Type Date Time Source
KMCF METAR 2020/07/11 00:56 UTC NOAA

KMCF 110056Z AUTO 27006KT 10SM FEW022 SCT039 SCT065 30/25 A2996 RMK AO2 SLP148 T02990252 FZRANO $


Station Type Date Time Source
KMCF Decoded METAR 2020/07/11 00:56 UTC NOAA

Macdill Air Force Base, Fl., FL, United States (KMCF) 27-51N 082-30W 4M
Jul 10, 2020 - 08:56 PM EDT / 2020.07.11 0056 UTC
Wind: from the W (270 degrees) at 7 MPH (6 KT):0
Visibility: 10 mile(s):0
Sky conditions: partly cloudy
Temperature: 85.8 F (29.9 C)
Heat index: 96.8 F (36.0 C):1
Dew Point: 77.4 F (25.2 C)
Relative Humidity: 75%
Pressure (altimeter): 29.96 in. Hg (1014 hPa)
ob: KMCF 110056Z AUTO 27006KT 10SM FEW022 SCT039 SCT065 30/25 A2996 RMK AO2 SLP148 T02990252 FZRANO
cycle: 1

Station Type Date Time Source
KMCF TAF 2020/07/10 18:00 UTC NOAA

TAF COR KMCF 101800Z 1018/1200 30015KT 9000 VCSH SCT025 QNH2994INS
BECMG 1109/1110 28009KT 8000 -SHRA FEW015 QNH2990INS
BECMG 1111/1112 29009KT 8000 -SHRA SCT010 QNH2992INS
TEMPO 1111/1118 VRB15G25KT 8000 -TSRA SCT018CB OVC026
BECMG 1118/1119 29012KT 9000 -SHRA SCT026 QNH2993INS
TEMPO 1118/1119 VRB15G25KT 9000 -TSRA SCT026CB BKN040 OVC055
BECMG 1119/1120 29012KT 9000 -SHRA BKN026 QNH2990INS TX29/1020Z TN27/1111Z LAST NO
AMDS AFT 1100 NEXT 1109

Example: see airport list